createdAt,value
2022-08-18T00:02:26.253Z,100220.53
2022-08-18T00:05:04.364Z,100224.13
2022-08-18T00:07:40.997Z,100221.42
2022-08-18T00:10:20.014Z,100217.87
2022-08-18T00:12:58.587Z,100216.65
2022-08-18T00:15:41.792Z,100216.17
2022-08-18T00:18:20.240Z,100211.58
2022-08-18T00:20:58.263Z,100215.66
2022-08-18T00:23:35.768Z,100217.20
2022-08-18T00:26:17.838Z,100217.61
2022-08-18T00:28:51.248Z,100211.55
2022-08-18T00:31:26.226Z,100208.42
2022-08-18T00:34:02.460Z,100210.74
2022-08-18T00:36:41.054Z,100212.59
2022-08-18T00:39:15.582Z,100213.11
2022-08-18T00:41:49.018Z,100208.84
2022-08-18T00:44:22.661Z,100207.73
2022-08-18T00:46:53.489Z,100208.61
2022-08-18T00:49:26.511Z,100208.13
2022-08-18T00:51:59.011Z,100218.66
2022-08-18T00:54:31.637Z,100219.30
2022-08-18T00:57:08.515Z,100223.89
2022-08-18T00:59:42.569Z,100228.85
2022-08-18T01:02:20.376Z,100225.16
2022-08-18T01:04:54.442Z,100227.11
2022-08-18T01:07:37.496Z,100228.06
2022-08-18T01:10:13.904Z,100223.09
2022-08-18T01:12:47.455Z,100226.91
2022-08-18T01:15:27.750Z,100228.61
2022-08-18T01:18:20.119Z,100230.70
2022-08-18T01:21:17.121Z,100232.44
2022-08-18T01:23:50.479Z,100231.98
2022-08-18T01:26:25.083Z,100231.83
2022-08-18T01:29:18.965Z,100235.80
2022-08-18T01:31:56.574Z,100237.94
2022-08-18T01:34:30.494Z,100237.92
2022-08-18T01:37:06.983Z,100235.79
2022-08-18T01:41:21.185Z,100234.70
2022-08-18T01:42:40.731Z,100237.90
2022-08-18T01:45:14.863Z,100239.23
2022-08-18T01:47:48.831Z,100236.05
2022-08-18T01:50:21.184Z,100236.73
2022-08-18T01:52:53.830Z,100240.27
2022-08-18T01:55:28.534Z,100240.29
2022-08-18T01:58:02.947Z,100239.54
2022-08-18T02:00:35.490Z,100239.48
2022-08-18T02:03:08.472Z,100240.23
2022-08-18T02:05:40.209Z,100238.52
2022-08-18T02:08:17.871Z,100240.14
2022-08-18T02:10:57.451Z,100242.23
2022-08-18T02:13:30.039Z,100248.47
2022-08-18T02:16:02.097Z,100252.98
2022-08-18T02:18:48.145Z,100252.71
2022-08-18T02:21:23.394Z,100252.23
2022-08-18T02:23:56.567Z,100252.86
2022-08-18T02:26:30.450Z,100250.20
2022-08-18T02:29:02.474Z,100253.26
2022-08-18T02:31:33.596Z,100256.90
2022-08-18T02:34:09.535Z,100256.55
2022-08-18T02:36:41.980Z,100256.91
2022-08-18T02:39:15.042Z,100255.82
2022-08-18T02:41:55.736Z,100253.94
2022-08-18T02:44:32.176Z,100251.17
2022-08-18T02:47:03.239Z,100256.57
2022-08-18T02:49:37.048Z,100260.83
2022-08-18T02:52:14.089Z,100263.95
2022-08-18T02:54:45.128Z,100266.69
2022-08-18T02:57:25.401Z,100267.64
2022-08-18T02:59:59.825Z,100266.17
2022-08-18T03:02:34.892Z,100266.27
2022-08-18T03:05:14.559Z,100268.85
2022-08-18T03:07:46.174Z,100270.13
2022-08-18T03:10:31.776Z,100270.33
2022-08-18T03:13:08.148Z,100269.29
2022-08-18T03:15:45.045Z,100272.75
2022-08-18T03:18:18.119Z,100271.79
2022-08-18T03:20:54.271Z,100268.29
2022-08-18T03:23:29.513Z,100275.84
2022-08-18T03:26:13.510Z,100282.58
2022-08-18T03:28:52.476Z,100282.60
2022-08-18T03:31:35.472Z,100289.52
2022-08-18T03:34:10.408Z,100298.20
2022-08-18T03:36:46.686Z,100301.64
2022-08-18T03:39:17.589Z,100299.45
2022-08-18T03:42:01.621Z,100305.83
2022-08-18T03:44:33.615Z,100302.20
2022-08-18T03:47:11.910Z,100302.61
2022-08-18T03:49:42.787Z,100303.95
2022-08-18T03:52:27.160Z,100303.31
2022-08-18T03:55:02.853Z,100300.73
2022-08-18T03:57:46.263Z,100299.14
2022-08-18T04:00:21.507Z,100298.61
2022-08-18T04:02:57.571Z,100295.23
2022-08-18T04:05:36.929Z,100295.00
2022-08-18T04:08:09.224Z,100297.36
2022-08-18T04:10:41.811Z,100298.25
2022-08-18T04:13:12.650Z,100302.70
2022-08-18T04:15:44.774Z,100308.72
2022-08-18T04:18:17.679Z,100308.27
2022-08-18T04:20:59.332Z,100318.80
2022-08-18T04:23:43.811Z,100324.17
2022-08-18T04:26:20.462Z,100327.40
2022-08-18T04:28:53.973Z,100333.79
2022-08-18T04:31:31.244Z,100330.59
2022-08-18T04:34:04.500Z,100327.37
2022-08-18T04:36:41.344Z,100334.23
2022-08-18T04:39:13.612Z,100338.27
2022-08-18T04:41:44.925Z,100337.65
2022-08-18T04:44:18.390Z,100336.17
2022-08-18T04:46:53.214Z,100341.06
2022-08-18T04:49:28.366Z,100343.17
2022-08-18T04:52:27.064Z,100341.73
2022-08-18T04:55:10.637Z,100338.27
2022-08-18T04:57:46.930Z,100348.51
2022-08-18T05:00:19.712Z,100342.64
2022-08-18T05:02:50.789Z,100336.98
2022-08-18T05:05:29.862Z,100333.23
2022-08-18T05:08:03.413Z,100334.66
2022-08-18T05:10:35.781Z,100330.98
2022-08-18T05:13:19.368Z,100330.59
2022-08-18T05:16:16.816Z,100327.25
2022-08-18T05:18:53.522Z,100324.45
2022-08-18T05:21:29.921Z,100322.75
2022-08-18T05:24:03.373Z,100319.68
2022-08-18T05:26:36.589Z,100318.70
2022-08-18T05:29:18.677Z,100320.73
2022-08-18T05:31:54.471Z,100323.13
2022-08-18T05:34:33.325Z,100323.38
2022-08-18T05:37:12.292Z,100330.63
2022-08-18T05:39:55.774Z,100335.25
2022-08-18T05:42:28.984Z,100334.07
2022-08-18T05:45:12.445Z,100335.88
2022-08-18T05:47:51.073Z,100343.59
2022-08-18T05:50:25.782Z,100347.02
2022-08-18T05:53:03.417Z,100344.48
2022-08-18T05:55:59.323Z,100351.56
2022-08-18T05:58:40.028Z,100351.88
2022-08-18T06:01:17.368Z,100353.31
2022-08-18T06:03:57.889Z,100355.70
2022-08-18T06:06:32.473Z,100350.32
2022-08-18T06:09:08.797Z,100348.37
2022-08-18T06:11:42.498Z,100349.63
2022-08-18T06:14:28.252Z,100350.45
2022-08-18T06:17:05.662Z,100352.25
2022-08-18T06:19:43.634Z,100352.86
2022-08-18T06:22:22.240Z,100351.08
2022-08-18T06:24:54.920Z,100354.00
2022-08-18T06:27:28.125Z,100355.64
2022-08-18T06:30:06.775Z,100354.00
2022-08-18T06:32:47.084Z,100354.86
2022-08-18T06:35:22.508Z,100360.39
2022-08-18T06:38:15.624Z,100361.75
2022-08-18T06:40:47.607Z,100364.20
2022-08-18T06:43:23.020Z,100362.38
2022-08-18T06:46:01.312Z,100360.99
2022-08-18T06:48:39.517Z,100363.60
2022-08-18T06:51:11.510Z,100364.96
2022-08-18T06:53:56.790Z,100366.14
2022-08-18T06:56:31.896Z,100366.33
2022-08-18T06:59:16.177Z,100370.05
2022-08-18T07:01:47.653Z,100367.55
2022-08-18T07:04:34.219Z,100367.27
2022-08-18T07:07:17.256Z,100361.38
2022-08-18T07:09:50.834Z,100361.80
2022-08-18T07:12:30.472Z,100361.66
2022-08-18T07:15:09.675Z,100367.52
2022-08-18T07:17:55.862Z,100363.38
2022-08-18T07:20:30.651Z,100362.38
2022-08-18T07:23:07.981Z,100357.52
2022-08-18T07:25:45.691Z,100354.67
2022-08-18T07:28:23.417Z,100358.40
2022-08-18T07:31:16.349Z,100361.48
2022-08-18T07:33:51.633Z,100362.05
2022-08-18T07:36:28.102Z,100362.58
2022-08-18T07:39:02.278Z,100357.39
2022-08-18T07:41:40.346Z,100355.13
2022-08-18T07:44:23.199Z,100359.52
2022-08-18T07:46:56.919Z,100355.61
2022-08-18T07:49:29.076Z,100352.73
2022-08-18T07:52:05.883Z,100354.81
2022-08-18T07:54:50.110Z,100354.55
2022-08-18T07:57:42.038Z,100355.19
2022-08-18T08:00:40.962Z,100354.79
2022-08-18T08:03:21.946Z,100360.06
2022-08-18T08:06:03.355Z,100360.16
2022-08-18T08:08:36.462Z,100357.16
2022-08-18T08:11:14.004Z,100360.23
2022-08-18T08:13:56.453Z,100361.50
2022-08-18T08:16:29.929Z,100365.79
2022-08-18T08:19:12.360Z,100363.31
2022-08-18T08:21:53.395Z,100356.73
2022-08-18T08:24:28.356Z,100356.34
2022-08-18T08:27:02.809Z,100358.30
2022-08-18T08:29:38.993Z,100358.48
2022-08-18T08:32:11.850Z,100356.61
2022-08-18T08:34:50.180Z,100360.33
2022-08-18T08:37:21.440Z,100355.80
2022-08-18T08:39:54.228Z,100356.13
2022-08-18T08:42:31.954Z,100354.86
2022-08-18T08:45:07.393Z,100354.27
2022-08-18T08:47:48.413Z,100354.23
2022-08-18T08:50:21.207Z,100351.98
2022-08-18T08:52:57.156Z,100352.43
2022-08-18T08:55:32.313Z,100348.45
2022-08-18T08:58:11.970Z,100346.96
2022-08-18T09:00:45.468Z,100349.61
2022-08-18T09:03:30.536Z,100348.96
2022-08-18T09:06:15.347Z,100354.38
2022-08-18T09:08:58.451Z,100353.58
2022-08-18T09:11:36.284Z,100352.36
2022-08-18T09:14:18.923Z,100350.03
2022-08-18T09:16:56.220Z,100350.36
2022-08-18T09:19:38.017Z,100354.92
2022-08-18T09:22:09.527Z,100358.03
2022-08-18T09:24:42.328Z,100357.64
2022-08-18T09:27:21.349Z,100354.83
2022-08-18T09:29:55.575Z,100354.16
2022-08-18T09:32:43.574Z,100356.48
2022-08-18T09:35:29.159Z,100356.83
2022-08-18T09:38:26.027Z,100359.42
2022-08-18T09:41:14.933Z,100361.40
2022-08-18T09:44:17.965Z,100355.48
2022-08-18T09:47:04.135Z,100350.08
2022-08-18T09:49:51.384Z,100351.73
2022-08-18T09:52:56.225Z,100349.81
2022-08-18T09:55:52.024Z,100349.31
2022-08-18T09:58:31.958Z,100352.41
2022-08-18T10:01:23.075Z,100347.63
2022-08-18T10:04:12.182Z,100355.34
2022-08-18T10:06:48.232Z,100346.34
2022-08-18T10:09:27.282Z,100348.48
2022-08-18T10:12:27.532Z,100343.98
2022-08-18T10:15:09.024Z,100344.13
2022-08-18T10:17:49.983Z,100349.31
2022-08-18T10:20:26.682Z,100345.58
2022-08-18T10:22:58.070Z,100341.77
2022-08-18T10:25:39.282Z,100340.48
2022-08-18T10:28:42.930Z,100335.58
2022-08-18T10:31:18.545Z,100333.23
2022-08-18T10:34:00.877Z,100332.19
2022-08-18T10:36:37.442Z,100332.47
2022-08-18T10:39:16.018Z,100325.60
2022-08-18T10:42:00.001Z,100321.46
2022-08-18T10:44:32.254Z,100321.15
2022-08-18T10:47:12.096Z,100319.34
2022-08-18T10:49:46.867Z,100317.17
2022-08-18T10:52:21.258Z,100311.89
2022-08-18T10:55:06.447Z,100310.56
2022-08-18T10:57:45.727Z,100311.57
2022-08-18T11:00:21.364Z,100309.46
2022-08-18T11:03:51.538Z,100301.07
2022-08-18T11:06:14.465Z,100287.13
2022-08-18T11:08:55.370Z,100281.30
2022-08-18T11:11:41.020Z,100283.44
2022-08-18T11:14:23.882Z,100281.80
2022-08-18T11:17:00.672Z,100283.33
2022-08-18T11:19:32.443Z,100277.90
2022-08-18T11:22:04.945Z,100276.27
2022-08-18T11:24:56.203Z,100275.58
2022-08-18T11:27:33.202Z,100275.45
2022-08-18T11:30:05.806Z,100266.11
2022-08-18T11:32:51.593Z,100262.27
2022-08-18T11:35:27.685Z,100264.40
2022-08-18T11:38:02.042Z,100264.50
2022-08-18T11:41:09.550Z,100264.33
2022-08-18T11:46:32.355Z,100259.86
2022-08-18T11:49:04.533Z,100258.17
2022-08-18T11:51:37.826Z,100254.05
2022-08-18T11:54:23.525Z,100256.11
2022-08-18T11:57:02.453Z,100244.13
2022-08-18T11:59:54.524Z,100232.45
2022-08-18T12:02:32.675Z,100228.13
2022-08-18T12:05:08.641Z,100225.66
2022-08-18T12:10:40.143Z,100213.64
2022-08-18T12:13:25.334Z,100216.38
2022-08-18T12:16:12.785Z,100217.10
2022-08-18T12:18:43.680Z,100213.54
2022-08-18T12:21:25.333Z,100218.63
2022-08-18T12:24:03.638Z,100215.16
2022-08-18T12:26:43.146Z,100214.31
2022-08-18T12:29:20.922Z,100220.05
2022-08-18T12:31:54.663Z,100217.19
2022-08-18T12:34:27.174Z,100213.58
2022-08-18T12:37:02.333Z,100207.35
2022-08-18T12:39:44.780Z,100208.84
2022-08-18T12:42:21.467Z,100208.91
2022-08-18T12:44:52.498Z,100206.73
2022-08-18T12:47:24.220Z,100199.58
2022-08-18T12:49:58.500Z,100197.02
2022-08-18T12:52:34.454Z,100191.14
2022-08-18T12:55:21.354Z,100185.75
2022-08-18T12:57:54.870Z,100188.36
2022-08-18T13:00:28.163Z,100187.16
2022-08-18T13:03:07.353Z,100186.92
2022-08-18T13:05:43.643Z,100182.33
2022-08-18T13:08:30.304Z,100183.95
2022-08-18T13:11:15.007Z,100189.22
2022-08-18T13:13:56.058Z,100193.66
2022-08-18T13:16:38.873Z,100198.83
2022-08-18T13:19:23.613Z,100195.80
2022-08-18T13:21:59.524Z,100187.14
2022-08-18T13:24:41.183Z,100186.70
2022-08-18T13:27:23.486Z,100179.73
2022-08-18T13:30:00.676Z,100174.69
2022-08-18T13:32:38.311Z,100172.69
2022-08-18T13:35:24.837Z,100168.76
2022-08-18T13:38:06.702Z,100165.03
2022-08-18T13:40:50.975Z,100157.96
2022-08-18T13:43:29.845Z,100152.82
2022-08-18T13:46:13.335Z,100155.38
2022-08-18T13:48:47.485Z,100153.81
2022-08-18T13:51:22.510Z,100157.88
2022-08-18T13:54:17.420Z,100159.72
2022-08-18T13:56:51.677Z,100154.52
2022-08-18T13:59:24.780Z,100150.89
2022-08-18T14:01:58.377Z,100147.66
2022-08-18T14:04:31.617Z,100139.71
2022-08-18T14:07:08.989Z,100138.26
2022-08-18T14:09:41.197Z,100140.14
2022-08-18T14:12:21.464Z,100137.00
2022-08-18T14:14:54.191Z,100138.68
2022-08-18T14:17:29.153Z,100134.85
2022-08-18T14:20:22.330Z,100131.23
2022-08-18T14:23:24.492Z,100132.99
2022-08-18T14:26:21.805Z,100137.98
2022-08-18T14:28:59.465Z,100142.61
2022-08-18T14:31:38.214Z,100137.75
2022-08-18T14:34:10.903Z,100144.39
2022-08-18T14:36:47.642Z,100145.30
2022-08-18T14:39:18.751Z,100143.66
2022-08-18T14:41:57.148Z,100142.54
2022-08-18T14:44:42.115Z,100137.00
2022-08-18T14:47:24.316Z,100143.55
2022-08-18T14:50:01.238Z,100138.55
2022-08-18T14:52:36.999Z,100140.79
2022-08-18T14:55:08.621Z,100139.89
2022-08-18T14:57:42.705Z,100136.50
2022-08-18T15:00:20.992Z,100132.45
2022-08-18T15:02:59.784Z,100131.95
2022-08-18T15:05:43.026Z,100137.04
2022-08-18T15:08:24.528Z,100132.20
2022-08-18T15:11:00.248Z,100132.77
2022-08-18T15:13:38.299Z,100135.46
2022-08-18T15:16:13.821Z,100136.48
2022-08-18T15:18:47.194Z,100135.19
2022-08-18T15:21:41.255Z,100132.48
2022-08-18T15:24:29.773Z,100133.55
2022-08-18T15:27:06.412Z,100140.66
2022-08-18T15:29:51.944Z,100140.67
2022-08-18T15:32:25.605Z,100138.67
2022-08-18T15:34:58.756Z,100143.64
2022-08-18T15:37:37.162Z,100146.55
2022-08-18T15:40:21.890Z,100146.73
2022-08-18T15:43:10.144Z,100146.50
2022-08-18T15:45:56.134Z,100146.25
2022-08-18T15:48:34.633Z,100142.66
2022-08-18T15:51:11.564Z,100144.44
2022-08-18T15:53:48.701Z,100145.48
2022-08-18T15:56:21.208Z,100148.30
2022-08-18T15:58:52.410Z,100151.58
2022-08-18T16:01:32.220Z,100149.73
2022-08-18T16:04:04.302Z,100152.30
2022-08-18T16:06:41.250Z,100157.09
2022-08-18T16:09:17.076Z,100158.67
2022-08-18T16:11:48.226Z,100167.11
2022-08-18T16:14:18.962Z,100170.76
2022-08-18T16:16:50.194Z,100171.63
2022-08-18T16:19:31.646Z,100175.52
2022-08-18T16:22:06.452Z,100178.52
2022-08-18T16:24:37.278Z,100183.98
2022-08-18T16:27:09.303Z,100187.08
2022-08-18T16:29:41.256Z,100185.36
2022-08-18T16:32:16.137Z,100193.38
2022-08-18T16:34:47.631Z,100193.80
2022-08-18T16:37:18.405Z,100194.11
2022-08-18T16:39:52.107Z,100199.43
2022-08-18T16:42:23.192Z,100206.83
2022-08-18T16:44:54.017Z,100212.20
2022-08-18T16:47:25.265Z,100212.71
2022-08-18T16:49:59.002Z,100216.93
2022-08-18T16:52:29.934Z,100222.48
2022-08-18T16:55:00.814Z,100225.81
2022-08-18T16:57:54.979Z,100226.85
2022-08-18T17:00:45.146Z,100231.73
2022-08-18T17:03:33.542Z,100234.56
2022-08-18T17:06:08.144Z,100242.83
2022-08-18T17:08:39.078Z,100244.39
2022-08-18T17:11:14.124Z,100242.44
2022-08-18T17:13:50.428Z,100239.98
2022-08-18T17:16:24.971Z,100238.83
2022-08-18T17:18:56.961Z,100238.67
2022-08-18T17:21:28.513Z,100237.83
2022-08-18T17:24:03.841Z,100240.05
2022-08-18T17:26:47.024Z,100243.55
2022-08-18T17:29:22.100Z,100245.95
2022-08-18T17:31:55.766Z,100255.81
2022-08-18T17:34:30.158Z,100263.17
2022-08-18T17:37:02.936Z,100264.59
2022-08-18T17:39:38.345Z,100262.92
2022-08-18T17:42:29.401Z,100264.30
2022-08-18T17:45:07.129Z,100261.05
2022-08-18T17:47:44.337Z,100270.73
2022-08-18T17:50:43.237Z,100271.32
2022-08-18T17:53:16.520Z,100269.33
2022-08-18T17:55:53.548Z,100271.45
2022-08-18T17:58:25.305Z,100270.42
2022-08-18T18:01:05.834Z,100273.58
2022-08-18T18:03:40.930Z,100275.90
2022-08-18T18:06:14.526Z,100282.10
2022-08-18T18:08:55.196Z,100290.02
2022-08-18T18:11:31.455Z,100292.64
2022-08-18T18:14:28.351Z,100293.81
2022-08-18T18:17:05.701Z,100295.55
2022-08-18T18:19:37.659Z,100296.77
2022-08-18T18:22:15.274Z,100293.09
2022-08-18T18:24:53.938Z,100289.56
2022-08-18T18:27:32.368Z,100290.29
2022-08-18T18:30:11.455Z,100297.13
2022-08-18T18:32:58.778Z,100295.98
2022-08-18T18:35:34.072Z,100297.77
2022-08-18T18:38:08.435Z,100297.69
2022-08-18T18:40:41.811Z,100294.29
2022-08-18T18:43:24.659Z,100298.06
2022-08-18T18:46:18.358Z,100305.81
2022-08-18T18:48:53.302Z,100311.64
2022-08-18T18:51:33.499Z,100315.27
2022-08-18T18:54:25.206Z,100321.05
2022-08-18T18:57:03.309Z,100319.10
2022-08-18T18:59:38.585Z,100322.05
2022-08-18T19:02:34.011Z,100322.65
2022-08-18T19:05:14.468Z,100325.98
2022-08-18T19:07:51.437Z,100328.40
2022-08-18T19:10:26.243Z,100331.48
2022-08-18T19:12:58.469Z,100326.50
2022-08-18T19:15:38.271Z,100326.71
2022-08-18T19:18:17.073Z,100328.20
2022-08-18T19:22:02.703Z,100330.09
2022-08-18T19:23:59.416Z,100332.80
2022-08-18T19:26:31.690Z,100329.61
2022-08-18T19:29:13.226Z,100326.07
2022-08-18T19:31:46.714Z,100322.84
2022-08-18T19:34:18.484Z,100323.80
2022-08-18T19:36:50.997Z,100321.36
2022-08-18T19:39:25.601Z,100323.63
2022-08-18T19:41:59.473Z,100323.30
2022-08-18T19:44:33.718Z,100331.81
2022-08-18T19:47:12.129Z,100327.59
2022-08-18T19:49:52.592Z,100325.22
2022-08-18T19:52:46.348Z,100325.83
2022-08-18T19:55:28.373Z,100325.95
2022-08-18T19:58:32.527Z,100327.88
2022-08-18T20:01:10.607Z,100325.70
2022-08-18T20:03:57.820Z,100322.73
2022-08-18T20:06:47.144Z,100326.40
2022-08-18T20:09:45.935Z,100324.80
2022-08-18T20:12:19.017Z,100329.91
2022-08-18T20:15:04.078Z,100326.89
2022-08-18T20:17:35.133Z,100327.48
2022-08-18T20:20:15.274Z,100326.92
2022-08-18T20:22:46.548Z,100328.13
2022-08-18T20:25:31.592Z,100323.58
2022-08-18T20:28:29.989Z,100324.59
2022-08-18T20:31:06.755Z,100327.89
2022-08-18T20:33:43.504Z,100331.92
2022-08-18T20:36:18.756Z,100328.36
2022-08-18T20:38:55.168Z,100323.66
2022-08-18T20:41:31.656Z,100320.75
2022-08-18T20:44:08.881Z,100322.12
2022-08-18T20:46:43.320Z,100320.59
2022-08-18T20:49:17.792Z,100318.58
2022-08-18T20:51:52.670Z,100317.78
2022-08-18T20:54:30.932Z,100318.12
2022-08-18T20:57:03.041Z,100319.90
2022-08-18T20:59:39.078Z,100317.48
2022-08-18T21:02:27.536Z,100318.20
2022-08-18T21:05:00.454Z,100317.90
2022-08-18T21:07:36.163Z,100320.08
2022-08-18T21:10:12.460Z,100321.62
2022-08-18T21:12:51.701Z,100319.66
2022-08-18T21:15:30.075Z,100314.95
2022-08-18T21:18:02.420Z,100318.47
2022-08-18T21:20:36.818Z,100317.33
2022-08-18T21:23:09.200Z,100318.25
2022-08-18T21:25:48.617Z,100317.70
2022-08-18T21:28:23.943Z,100322.17
2022-08-18T21:31:41.704Z,100319.57
2022-08-18T21:33:55.433Z,100313.64
2022-08-18T21:36:31.765Z,100316.55
2022-08-18T21:39:10.149Z,100315.22
2022-08-18T21:41:46.406Z,100318.36
2022-08-18T21:44:18.674Z,100320.18
2022-08-18T21:46:54.080Z,100317.85
2022-08-18T21:49:27.736Z,100322.20
2022-08-18T21:52:03.202Z,100324.42
2022-08-18T21:54:36.233Z,100327.29
2022-08-18T21:57:22.042Z,100332.61
2022-08-18T22:00:09.972Z,100329.60
2022-08-18T22:02:41.489Z,100332.67
2022-08-18T22:05:13.483Z,100330.83
2022-08-18T22:07:52.431Z,100332.64
2022-08-18T22:10:46.505Z,100334.02
2022-08-18T22:13:39.564Z,100333.13
2022-08-18T22:16:24.740Z,100335.76
2022-08-18T22:19:00.283Z,100335.88
2022-08-18T22:21:37.456Z,100338.52
2022-08-18T22:24:24.253Z,100338.85
2022-08-18T22:27:05.665Z,100339.39
2022-08-18T22:29:45.432Z,100338.39
2022-08-18T22:32:19.379Z,100335.94
2022-08-18T22:34:53.472Z,100336.85
2022-08-18T22:37:25.456Z,100334.41
2022-08-18T22:40:01.849Z,100335.63
2022-08-18T22:42:36.210Z,100328.11
2022-08-18T22:45:08.714Z,100326.52
2022-08-18T22:47:44.667Z,100325.66
2022-08-18T22:50:18.139Z,100321.91
2022-08-18T22:52:55.528Z,100322.20
2022-08-18T22:55:33.240Z,100324.34
2022-08-18T22:58:07.906Z,100327.55
2022-08-18T23:00:41.027Z,100331.22
2022-08-18T23:03:14.419Z,100333.45
2022-08-18T23:05:48.433Z,100335.80
2022-08-18T23:08:35.734Z,100338.17
2022-08-18T23:11:20.557Z,100334.96
2022-08-18T23:13:54.295Z,100337.14
2022-08-18T23:16:30.460Z,100334.09
2022-08-18T23:19:03.783Z,100332.13
2022-08-18T23:21:35.784Z,100327.27
2022-08-18T23:24:11.217Z,100329.04
2022-08-18T23:26:42.021Z,100329.84
2022-08-18T23:29:12.897Z,100331.38
2022-08-18T23:31:48.583Z,100324.38
2022-08-18T23:34:21.648Z,100324.57
2022-08-18T23:36:56.848Z,100322.86
2022-08-18T23:39:30.440Z,100321.42
2022-08-18T23:42:03.357Z,100323.33
2022-08-18T23:44:36.276Z,100323.88
2022-08-18T23:47:13.347Z,100321.48
2022-08-18T23:49:44.168Z,100322.09
2022-08-18T23:52:21.128Z,100322.30
2022-08-18T23:54:54.494Z,100321.25
2022-08-18T23:57:27.649Z,100317.21
